• Join FlightAware (Why Join?)
  • Login
  • US Flag 
05:24PM EST


 

Airport Tracker/Info


-or-


 

Live Flight TrackerFlight Track Log ✈ FDX739 ✈ 19-Apr-2013 ✈ KMEM - KLCK

Flight Track Log - Related Links

Times and Time Zones

All times are in EDT time to prevent confusion due to time zone crossing. See the FDX739 flight status page for this flight to view local times or setup timezone preferences in your user account.

Time Position Orientation Groundspeed Altitude Reporting Facility
EDT Latitude Longitude Course Direction KTS MPH feet Rate Location/Type
04:50PM 35.0167 -89.9667 180° South 168 193 1,000  Level KMEM
04:50PM 35.0000 -89.9667 180° South 165 190 1,600 1,680 Climbing KMEM
04:51PM 34.9500 -89.9500 165° South 236 272 3,400 2,160 Climbing KMEM
04:52PM 34.9333 -89.8667 104° East 284 327 6,000 2,640 Climbing KMEM
04:53PM 34.9500 -89.7833 76° East 289 333 8,500 2,400 Climbing KMEM
04:53PM 34.9744 -89.7464 51° Northeast 299 344 9,400 1,680 Climbing Memphis Center
04:54PM 35.0178 -89.6447 62° Northeast 342 394 11,000 1,860 Climbing Memphis Center
04:55PM 35.0672 -89.5275 63° Northeast 374 430 13,200 2,100 Climbing Memphis Center
04:56PM 35.1225 -89.4075 61° Northeast 385 443 15,300 1,800 Climbing Memphis Center
04:57PM 35.1717 -89.2928 62° Northeast 406 467 16,800 1,500 Climbing Memphis Center
04:58PM 35.2308 -89.1572 62° Northeast 438 504 18,300 1,620 Climbing Memphis Center
04:59PM 35.2942 -89.0189 61° Northeast 456 525 20,100 1,500 Climbing Memphis Center
05:00PM 35.3636 -88.8753 59° Northeast 473 544 21,300 1,200 Climbing Memphis Center
05:06PM 35.8360 -88.0270 59° Northeast 575 662 28,100 1,200 Climbing FlightAware
05:07PM 35.9100 -87.9230 49° Northeast 580 667 28,900 1,080 Climbing FlightAware
05:07PM 35.9820 -87.8200 49° Northeast 583 671 29,700 1,200 Climbing FlightAware
05:08PM 36.0640 -87.7010 50° Northeast 585 673 30,600 1,200 Climbing FlightAware
05:09PM 36.1340 -87.6020 49° Northeast 585 673 31,400 1,020 Climbing FlightAware
05:09PM 36.2140 -87.4880 49° Northeast 586 674 32,100 1,020 Climbing FlightAware
05:10PM 36.2850 -87.3860 49° Northeast 583 671 32,900 660 Climbing FlightAware
05:11PM 36.3540 -87.2850 50° Northeast 582 670 33,000 60 Climbing FlightAware
05:12PM 36.4350 -87.1680 49° Northeast 585 673 33,000  Level FlightAware
05:12PM 36.5060 -87.0650 49° Northeast 587 676 33,000 180 Level FlightAware
05:13PM 36.5770 -86.9620 49° Northeast 589 678 33,300 600 Climbing FlightAware
05:14PM 36.6480 -86.8580 50° Northeast 592 681 33,800 540 Climbing FlightAware
05:14PM 36.7250 -86.7440 50° Northeast 598 688 34,100 420 Climbing FlightAware
05:15PM 36.7980 -86.6380 49° Northeast 604 695 34,400 600 Climbing FlightAware
05:15PM 36.8486 -86.5636 50° Northeast 603 694 34,800 720 Climbing FlightAware ADS-B
05:16PM 36.8879 -86.5055 50° Northeast 598 688 35,000 300 Climbing FlightAware ADS-B
05:16PM 36.9236 -86.4623 44° Northeast 592 681 35,000  Level FlightAware ADS-B
05:16PM 36.9615 -86.4241 39° Northeast 590 679 35,000  Level FlightAware ADS-B
05:17PM 37.0014 -86.3922 33° Northeast 587 676 35,000  Level FlightAware ADS-B
05:17PM 37.0748 -86.3389 30° Northeast 589 678 35,000  Level FlightAware ADS-B
05:18PM 37.1467 -86.2850 31° Northeast 589 678 35,000  Level FlightAware ADS-B
05:19PM 37.2670 -86.1970 30° Northeast 589 678 35,000  Level FlightAware
05:19PM 37.3460 -86.1410 29° Northeast 590 679 35,000  Level FlightAware
05:19PM 37.3752 -86.1181 32° Northeast 590 679 35,000  Level FlightAware ADS-B
05:20PM 37.4761 -86.0434 30° Northeast 592 681 35,000  Level FlightAware ADS-B
05:21PM 37.5475 -85.9913 30° Northeast 593 682 35,000  Level FlightAware ADS-B
05:21PM 37.6630 -85.9070 30° Northeast 593 682 35,000  Level FlightAware
05:22PM 37.7650 -85.8310 30° Northeast 595 685 35,000  Level FlightAware
05:23PM 37.8560 -85.7620 31° Northeast 596 686 35,000  Level FlightAware
05:23PM 37.9640 -85.6820 30° Northeast 597 687 35,000  Level FlightAware
05:24PM 38.0600 -85.6110 30° Northeast 598 688 35,000  Level FlightAware
05:25PM 38.1650 -85.5200 34° Northeast 601 692 35,000 -720 Level FlightAware
05:26PM 38.2540 -85.4360 37° Northeast 602 693 34,000 -1,500 Descending FlightAware
05:26PM 38.3440 -85.3500 37° Northeast 617 710 33,000 -1,440 Descending FlightAware
05:27PM 38.4450 -85.2540 37° Northeast 614 707 32,000 -1,380 Descending FlightAware
05:28PM 38.5330 -85.1700 37° Northeast 599 689 31,100 -1,080 Descending FlightAware
05:28PM 38.6370 -85.0710 37° Northeast 591 680 30,500 -1,560 Descending FlightAware
05:29PM 38.7200 -84.9900 37° Northeast 599 689 28,900 -2,340 Descending FlightAware
05:30PM 38.8100 -84.9030 37° Northeast 593 682 27,400 -2,220 Descending FlightAware
05:30PM 38.9050 -84.8110 37° Northeast 576 663 25,800 -2,100 Descending FlightAware
05:31PM 38.9880 -84.7290 38° Northeast 557 641 24,500 -1,200 Descending FlightAware
05:32PM 39.0700 -84.6150 47° Northeast 541 623 24,000 -300 Descending FlightAware
05:33PM 39.1400 -84.5120 49° Northeast 541 623 24,000  Level FlightAware
05:33PM 39.1950 -84.4290 49° Northeast 541 623 24,000  Level FlightAware
05:34PM 39.2510 -84.3460 49° Northeast 541 623 24,000  Level FlightAware
05:35PM 39.3070 -84.2630 49° Northeast 541 623 24,000  Level FlightAware
05:35PM 39.3630 -84.1800 49° Northeast 541 623 24,000 -3,600 Level FlightAware
05:37PM 39.4220 -83.8690 76° East 494 568 17,100 -3,900 Descending FlightAware
05:37PM 39.4650 -83.7540 64° Northeast 460 529 16,300 -1,440 Descending FlightAware
05:38PM 39.5160 -83.6190 64° Northeast 433 498 14,700 -2,040 Descending FlightAware
05:39PM 39.5550 -83.5170 64° Northeast 418 481 12,900 -2,400 Descending FlightAware
05:40PM 39.5890 -83.4280 64° Northeast 418 481 11,300 -1,320 Descending FlightAware
05:40PM 39.6160 -83.3570 64° Northeast 418 481 11,300  Level FlightAware
05:41PM 39.6520 -83.2610 64° Northeast 418 481 11,300  Level FlightAware
05:42PM 39.6730 -83.2040 64° Northeast 418 481 11,300 -1,500 Level FlightAware
05:42PM 39.7033 -83.1228 64° Northeast 408 470 10,000 -1,380 Descending Indianapolis Center
05:43PM 39.7242 -83.0458 71° East 380 437 9,900 -540 Descending Indianapolis Center
05:43PM 39.7372 -82.9967 71° East 329 379 9,500 -1,200 Descending Indianapolis Center
05:44PM 39.7525 -82.9333 73° East 329 379 8,700 -1,320 Descending Indianapolis Center
05:44PM 39.7656 -82.8858 70° East 313 360 8,200 -1,680 Descending Indianapolis Center
05:45PM 39.7900 -82.8347 58° Northeast 312 359 7,000 -2,220 Descending Indianapolis Center
05:45PM 39.8153 -82.7994 47° Northeast 292 336 6,000 -2,460 Descending Indianapolis Center
05:46PM 39.8450 -82.7581 47° Northeast 289 333 4,500 -2,580 Descending Indianapolis Center
05:46PM 39.8683 -82.7264 46° Northeast 271 312 3,400 -1,500 Descending Indianapolis Center
05:47PM 39.9050 -82.7147 14° North 275 316 3,000 -420 Descending Indianapolis Center
05:47PM 39.9219 -82.7381 313° West 218 251 3,000  Level Indianapolis Center
05:48PM 39.9114 -82.7864 254° West 211 243 3,000  Level Indianapolis Center
05:48PM 39.9025 -82.8092 243° Southwest 182 209 3,000 -720 Level Indianapolis Center
05:49PM 39.8778 -82.8425 226° Southwest 197 227 2,300 -1,140 Descending Indianapolis Center
05:49PM 39.8617 -82.8589 218° Southwest 185 213 1,900 -1,020 Descending Indianapolis Center
05:50PM 39.8447 -82.8831 228° Southwest 176 203 1,300 -720 Descending Indianapolis Center
05:50PM 39.8336 -82.8992 228° Southwest 139 160 1,100 -300 Descending Indianapolis Center
05:51PM 39.8197 -82.9156 222° Southwest 154 177 1,000 -180 Descending Indianapolis Center
05:53PM 39.8138 -82.9278 252° West  Level Estimated